JBU2145 KRSW-KDCA
Flight info
| Callsign | JBU2145 |
|---|---|
| Flight time | 2h 4m |
| Altitude | 33000 |
| Route | CSHEL8 VIYAP Q87 RAYVO Q113 AARNN WAVES CAPSS4 |
| Aircraft | A321/M-SDE3FGHIRWY/LB1 |
Departure
| Time | 2026-05-06 02:10 |
|---|---|
| Airport | Southwest Florida International Airport (KRSW) |
Arrival
| Time | 2026-05-06 04:14 |
|---|---|
| Airport | Ronald Reagan Washington National Airport (KDCA) |
| Time | Latitude | Longitude | Altitude | Speed | Heading |
|---|---|---|---|---|---|
| 2026-05-06 01:43 | 26.52951 | -81.75451 | 44 ft | 0 kts | 279° |
| 2026-05-06 01:45 | 26.52951 | -81.75450 | 44 ft | 0 kts | 279° |
| 2026-05-06 01:57 | 26.52948 | -81.75432 | 44 ft | 3 kts | 279° |
| 2026-05-06 01:57 | 26.52945 | -81.75411 | 44 ft | 3 kts | 279° |
| 2026-05-06 01:57 | 26.52942 | -81.75391 | 40 ft | 3 kts | 279° |
| 2026-05-06 01:58 | 26.52934 | -81.75372 | 41 ft | 3 kts | 337° |
| 2026-05-06 01:58 | 26.52922 | -81.75369 | 40 ft | 0 kts | 7° |
| 2026-05-06 02:01 | 26.52940 | -81.75369 | 44 ft | 5 kts | 359° |
| 2026-05-06 02:01 | 26.52988 | -81.75365 | 44 ft | 7 kts | 8° |
| 2026-05-06 02:02 | 26.53004 | -81.75362 | 44 ft | 0 kts | 9° |
| 2026-05-06 02:02 | 26.53007 | -81.75361 | 44 ft | 1 kts | 7° |
| 2026-05-06 02:02 | 26.53033 | -81.75357 | 44 ft | 7 kts | 8° |
| 2026-05-06 02:03 | 26.53084 | -81.75387 | 44 ft | 12 kts | 299° |
| 2026-05-06 02:03 | 26.53105 | -81.75496 | 41 ft | 15 kts | 279° |
| 2026-05-06 02:03 | 26.53122 | -81.75615 | 44 ft | 16 kts | 279° |
| 2026-05-06 02:03 | 26.53138 | -81.75736 | 44 ft | 16 kts | 271° |
| 2026-05-06 02:04 | 26.53089 | -81.75844 | 44 ft | 16 kts | 234° |
| 2026-05-06 02:04 | 26.53023 | -81.75946 | 43 ft | 16 kts | 237° |
| 2026-05-06 02:04 | 26.53063 | -81.76044 | 41 ft | 16 kts | 322° |
| 2026-05-06 02:04 | 26.53069 | -81.76148 | 41 ft | 16 kts | 236° |
| 2026-05-06 02:05 | 26.52994 | -81.76262 | 42 ft | 19 kts | 233° |
| 2026-05-06 02:05 | 26.52915 | -81.76383 | 43 ft | 19 kts | 234° |
| 2026-05-06 02:05 | 26.52836 | -81.76504 | 43 ft | 19 kts | 234° |
| 2026-05-06 02:05 | 26.52757 | -81.76625 | 44 ft | 19 kts | 234° |
| 2026-05-06 02:06 | 26.52678 | -81.76745 | 44 ft | 19 kts | 233° |
| 2026-05-06 02:06 | 26.52602 | -81.76861 | 44 ft | 13 kts | 236° |
| 2026-05-06 02:06 | 26.52589 | -81.76915 | 44 ft | 0 kts | 278° |
| 2026-05-06 02:09 | 26.52592 | -81.76924 | 44 ft | 5 kts | 287° |
| 2026-05-06 02:09 | 26.52638 | -81.76971 | 45 ft | 10 kts | 332° |
| 2026-05-06 02:09 | 26.52692 | -81.76934 | 42 ft | 10 kts | 53° |
| 2026-05-06 02:09 | 26.52767 | -81.76821 | 44 ft | 40 kts | 54° |
| 2026-05-06 02:10 | 26.53066 | -81.76361 | 40 ft | 104 kts | 53° |
| 2026-05-06 02:10 | 26.53600 | -81.75536 | 43 ft | 156 kts | 54° |
| 2026-05-06 02:10 | 26.54314 | -81.74456 | 249 ft | 179 kts | 54° |
| 2026-05-06 02:10 | 26.55071 | -81.73365 | 968 ft | 175 kts | 49° |
| 2026-05-06 02:11 | 26.55831 | -81.72322 | 1688 ft | 172 kts | 49° |
| 2026-05-06 02:11 | 26.56629 | -81.71259 | 2017 ft | 187 kts | 49° |
| 2026-05-06 02:11 | 26.57488 | -81.70095 | 2369 ft | 199 kts | 51° |
| 2026-05-06 02:11 | 26.58461 | -81.68969 | 2824 ft | 208 kts | 35° |
| 2026-05-06 02:12 | 26.59859 | -81.68367 | 3116 ft | 227 kts | 10° |
| 2026-05-06 02:12 | 26.61537 | -81.68275 | 3191 ft | 258 kts | 359° |
| 2026-05-06 02:12 | 26.63400 | -81.68388 | 3492 ft | 274 kts | 356° |
| 2026-05-06 02:12 | 26.65310 | -81.68608 | 4170 ft | 277 kts | 354° |
| 2026-05-06 02:13 | 26.67216 | -81.68867 | 4990 ft | 276 kts | 353° |
| 2026-05-06 02:13 | 26.69124 | -81.69166 | 5680 ft | 278 kts | 351° |
| 2026-05-06 02:13 | 26.71046 | -81.69491 | 6327 ft | 280 kts | 349° |
| 2026-05-06 02:13 | 26.72980 | -81.69831 | 6950 ft | 282 kts | 350° |
| 2026-05-06 02:14 | 26.74928 | -81.70150 | 7598 ft | 283 kts | 351° |
| 2026-05-06 02:14 | 26.76866 | -81.70453 | 8257 ft | 283 kts | 350° |
| 2026-05-06 02:14 | 26.78818 | -81.70753 | 8907 ft | 283 kts | 350° |
| 2026-05-06 02:14 | 26.80769 | -81.71054 | 9551 ft | 283 kts | 349° |
| 2026-05-06 02:15 | 26.82718 | -81.71358 | 10152 ft | 284 kts | 349° |
| 2026-05-06 02:15 | 26.84043 | -81.71565 | 10248 ft | 296 kts | 349° |
| 2026-05-06 02:15 | 26.86145 | -81.71899 | 10373 ft | 314 kts | 349° |
| 2026-05-06 02:15 | 26.88366 | -81.72253 | 10494 ft | 331 kts | 350° |
| 2026-05-06 02:16 | 26.90699 | -81.72623 | 10610 ft | 346 kts | 350° |
| 2026-05-06 02:16 | 26.93134 | -81.73009 | 10757 ft | 360 kts | 350° |
| 2026-05-06 02:16 | 26.95628 | -81.73405 | 11153 ft | 364 kts | 350° |
| 2026-05-06 02:16 | 26.98141 | -81.73803 | 11635 ft | 366 kts | 351° |
| 2026-05-06 02:17 | 27.00673 | -81.74200 | 12119 ft | 368 kts | 351° |
| 2026-05-06 02:17 | 27.03182 | -81.74748 | 12592 ft | 369 kts | 343° |
| 2026-05-06 02:17 | 27.05646 | -81.75605 | 13063 ft | 371 kts | 342° |
| 2026-05-06 02:17 | 27.08119 | -81.76465 | 13557 ft | 374 kts | 342° |
| 2026-05-06 02:18 | 27.10613 | -81.77327 | 14026 ft | 376 kts | 342° |
| 2026-05-06 02:18 | 27.13118 | -81.78190 | 14462 ft | 378 kts | 342° |
| 2026-05-06 02:18 | 27.15642 | -81.79058 | 14900 ft | 380 kts | 342° |
| 2026-05-06 02:18 | 27.18179 | -81.79932 | 15341 ft | 383 kts | 342° |
| 2026-05-06 02:19 | 27.20732 | -81.80814 | 15788 ft | 385 kts | 342° |
| 2026-05-06 02:19 | 27.23300 | -81.81705 | 16231 ft | 387 kts | 342° |
| 2026-05-06 02:19 | 27.25888 | -81.82604 | 16669 ft | 391 kts | 342° |
| 2026-05-06 02:19 | 27.28491 | -81.83507 | 17102 ft | 393 kts | 341° |
| 2026-05-06 02:20 | 27.33761 | -81.85328 | 17978 ft | 398 kts | 341° |
| 2026-05-06 02:20 | 27.36420 | -81.86246 | 18392 ft | 401 kts | 341° |
| 2026-05-06 02:20 | 27.39094 | -81.87173 | 18746 ft | 403 kts | 341° |
| 2026-05-06 02:21 | 27.41776 | -81.88109 | 19116 ft | 404 kts | 341° |
| 2026-05-06 02:21 | 27.44469 | -81.89049 | 19464 ft | 406 kts | 341° |
| 2026-05-06 02:21 | 27.47136 | -81.89978 | 19827 ft | 407 kts | 341° |
| 2026-05-06 02:21 | 27.49880 | -81.90931 | 20187 ft | 408 kts | 341° |
| 2026-05-06 02:22 | 27.52599 | -81.91874 | 20532 ft | 410 kts | 341° |
| 2026-05-06 02:22 | 27.55325 | -81.92820 | 20875 ft | 411 kts | 341° |
| 2026-05-06 02:22 | 27.58066 | -81.93772 | 21201 ft | 412 kts | 340° |
| 2026-05-06 02:22 | 27.60810 | -81.94725 | 21521 ft | 413 kts | 340° |
| 2026-05-06 02:23 | 27.63564 | -81.95684 | 21829 ft | 415 kts | 340° |
| 2026-05-06 02:23 | 27.66287 | -81.96631 | 22124 ft | 416 kts | 340° |
| 2026-05-06 02:23 | 27.69097 | -81.97614 | 22436 ft | 417 kts | 340° |
| 2026-05-06 02:23 | 27.71832 | -81.98574 | 22736 ft | 418 kts | 340° |
| 2026-05-06 02:24 | 27.74616 | -81.99552 | 23034 ft | 420 kts | 340° |
| 2026-05-06 02:24 | 27.77411 | -82.00532 | 23327 ft | 421 kts | 340° |
| 2026-05-06 02:24 | 27.80219 | -82.01506 | 23620 ft | 423 kts | 340° |
| 2026-05-06 02:24 | 27.83038 | -82.02461 | 23867 ft | 424 kts | 340° |
| 2026-05-06 02:25 | 27.85878 | -82.03408 | 24134 ft | 425 kts | 340° |
| 2026-05-06 02:25 | 27.88719 | -82.04352 | 24397 ft | 426 kts | 340° |
| 2026-05-06 02:25 | 27.91563 | -82.05299 | 24649 ft | 427 kts | 340° |
| 2026-05-06 02:25 | 27.94414 | -82.06254 | 24900 ft | 428 kts | 340° |
| 2026-05-06 02:26 | 27.97271 | -82.07214 | 25134 ft | 429 kts | 340° |
| 2026-05-06 02:26 | 28.00129 | -82.08176 | 25369 ft | 430 kts | 340° |
| 2026-05-06 02:26 | 28.02996 | -82.09144 | 25616 ft | 431 kts | 340° |
| 2026-05-06 02:26 | 28.05875 | -82.10116 | 25858 ft | 432 kts | 340° |
| 2026-05-06 02:27 | 28.08799 | -82.10936 | 26093 ft | 436 kts | 347° |
| 2026-05-06 02:27 | 28.11837 | -82.11291 | 26329 ft | 440 kts | 351° |
| 2026-05-06 02:27 | 28.14893 | -82.11578 | 26600 ft | 441 kts | 351° |
| 2026-05-06 02:27 | 28.17951 | -82.11871 | 26850 ft | 442 kts | 351° |
| 2026-05-06 02:28 | 28.21017 | -82.12168 | 27088 ft | 442 kts | 350° |
| 2026-05-06 02:28 | 28.24076 | -82.12463 | 27418 ft | 441 kts | 350° |
| 2026-05-06 02:28 | 28.27123 | -82.12756 | 27768 ft | 439 kts | 350° |
| 2026-05-06 02:28 | 28.30163 | -82.13050 | 28115 ft | 437 kts | 350° |
| 2026-05-06 02:29 | 28.33186 | -82.13343 | 28465 ft | 436 kts | 350° |
| 2026-05-06 02:29 | 28.36204 | -82.13635 | 28814 ft | 434 kts | 350° |
| 2026-05-06 02:29 | 28.39206 | -82.13925 | 29161 ft | 433 kts | 350° |
| 2026-05-06 02:29 | 28.42201 | -82.14216 | 29500 ft | 431 kts | 350° |
| 2026-05-06 02:30 | 28.45186 | -82.14491 | 29869 ft | 431 kts | 352° |
| 2026-05-06 02:30 | 28.48192 | -82.14349 | 30216 ft | 437 kts | 1° |
| 2026-05-06 02:30 | 28.51181 | -82.13575 | 30499 ft | 445 kts | 11° |
| 2026-05-06 02:30 | 28.54114 | -82.12448 | 30764 ft | 444 kts | 11° |
| 2026-05-06 02:31 | 28.57039 | -82.11322 | 31041 ft | 443 kts | 11° |
| 2026-05-06 02:31 | 28.59926 | -82.10218 | 31317 ft | 442 kts | 11° |
| 2026-05-06 02:31 | 28.62876 | -82.09093 | 31591 ft | 441 kts | 11° |
| 2026-05-06 02:31 | 28.65747 | -82.08001 | 31878 ft | 440 kts | 11° |
| 2026-05-06 02:32 | 28.68645 | -82.06900 | 32155 ft | 439 kts | 10° |
| 2026-05-06 02:32 | 28.71582 | -82.05788 | 32415 ft | 438 kts | 10° |
| 2026-05-06 02:32 | 28.74470 | -82.04691 | 32714 ft | 437 kts | 10° |
| 2026-05-06 02:32 | 28.77350 | -82.03594 | 32987 ft | 436 kts | 10° |
| 2026-05-06 02:33 | 28.80230 | -82.02493 | 33080 ft | 436 kts | 10° |
| 2026-05-06 02:33 | 28.82130 | -82.01766 | 33097 ft | 436 kts | 10° |
| 2026-05-06 02:34 | 28.91672 | -81.98106 | 33086 ft | 435 kts | 10° |
| 2026-05-06 02:34 | 28.97413 | -81.95914 | 33087 ft | 435 kts | 10° |
| 2026-05-06 02:35 | 29.03149 | -81.93712 | 33084 ft | 434 kts | 9° |
| 2026-05-06 02:35 | 29.08872 | -81.91516 | 33086 ft | 434 kts | 9° |
| 2026-05-06 02:36 | 29.14601 | -81.89321 | 33094 ft | 434 kts | 9° |
| 2026-05-06 02:36 | 29.20333 | -81.87110 | 33094 ft | 434 kts | 10° |
| 2026-05-06 02:37 | 29.26062 | -81.84898 | 33096 ft | 434 kts | 9° |
| 2026-05-06 02:37 | 29.31791 | -81.82686 | 33123 ft | 434 kts | 9° |
| 2026-05-06 02:38 | 29.37518 | -81.80476 | 33114 ft | 434 kts | 9° |
| 2026-05-06 02:38 | 29.43241 | -81.78261 | 33110 ft | 434 kts | 9° |
| 2026-05-06 02:39 | 29.48966 | -81.76047 | 33112 ft | 434 kts | 9° |
| 2026-05-06 02:39 | 29.54694 | -81.73825 | 33110 ft | 434 kts | 9° |
| 2026-05-06 02:40 | 29.60385 | -81.71619 | 33136 ft | 434 kts | 9° |
| 2026-05-06 02:40 | 29.66103 | -81.69393 | 33125 ft | 434 kts | 9° |
| 2026-05-06 02:41 | 29.71827 | -81.67167 | 33117 ft | 434 kts | 9° |
| 2026-05-06 02:41 | 29.77594 | -81.65015 | 33125 ft | 432 kts | 8° |
| 2026-05-06 02:42 | 29.83282 | -81.62921 | 33121 ft | 431 kts | 8° |
| 2026-05-06 02:42 | 29.88989 | -81.60794 | 33129 ft | 431 kts | 8° |
| 2026-05-06 02:43 | 29.94691 | -81.58652 | 33117 ft | 430 kts | 8° |
| 2026-05-06 02:43 | 30.00380 | -81.56515 | 33117 ft | 430 kts | 8° |
| 2026-05-06 02:44 | 30.06067 | -81.54377 | 33112 ft | 430 kts | 8° |
| 2026-05-06 02:44 | 30.11753 | -81.52236 | 33110 ft | 429 kts | 8° |
| 2026-05-06 02:45 | 30.17424 | -81.50098 | 33118 ft | 428 kts | 8° |
| 2026-05-06 02:45 | 30.23094 | -81.47960 | 33108 ft | 428 kts | 8° |
| 2026-05-06 02:46 | 30.28768 | -81.45823 | 33104 ft | 429 kts | 8° |
| 2026-05-06 02:46 | 30.34434 | -81.43682 | 33102 ft | 429 kts | 8° |
| 2026-05-06 02:47 | 30.40102 | -81.41534 | 33104 ft | 429 kts | 8° |
| 2026-05-06 02:47 | 30.45802 | -81.39674 | 33103 ft | 417 kts | 359° |
| 2026-05-06 02:47 | 30.48657 | -81.39479 | 33102 ft | 406 kts | 350° |
| 2026-05-06 02:48 | 30.51470 | -81.39636 | 33116 ft | 405 kts | 349° |
| 2026-05-06 02:48 | 30.57076 | -81.39943 | 33120 ft | 406 kts | 350° |
| 2026-05-06 02:49 | 30.62722 | -81.40235 | 33124 ft | 407 kts | 350° |
| 2026-05-06 02:49 | 30.68382 | -81.40527 | 33148 ft | 407 kts | 349° |
| 2026-05-06 02:50 | 30.74035 | -81.40829 | 33133 ft | 407 kts | 349° |
| 2026-05-06 02:50 | 30.79693 | -81.41130 | 33122 ft | 407 kts | 349° |
| 2026-05-06 02:51 | 30.85346 | -81.41430 | 33115 ft | 406 kts | 349° |
| 2026-05-06 02:51 | 30.90996 | -81.41732 | 33102 ft | 406 kts | 349° |
| 2026-05-06 02:52 | 30.96640 | -81.42031 | 33124 ft | 406 kts | 349° |
| 2026-05-06 02:52 | 31.02295 | -81.42330 | 33114 ft | 406 kts | 349° |
| 2026-05-06 02:53 | 31.07952 | -81.42632 | 33116 ft | 407 kts | 349° |
| 2026-05-06 02:53 | 31.13606 | -81.42934 | 33110 ft | 407 kts | 349° |
| 2026-05-06 02:54 | 31.19260 | -81.43240 | 33107 ft | 407 kts | 349° |
| 2026-05-06 02:54 | 31.24921 | -81.43121 | 33153 ft | 420 kts | 1° |
| 2026-05-06 02:54 | 31.27777 | -81.42176 | 33135 ft | 434 kts | 12° |
| 2026-05-06 02:55 | 31.30549 | -81.40705 | 33130 ft | 439 kts | 14° |
| 2026-05-06 02:55 | 31.36084 | -81.37694 | 33119 ft | 439 kts | 14° |
| 2026-05-06 02:56 | 31.41625 | -81.34686 | 33111 ft | 439 kts | 14° |
| 2026-05-06 02:56 | 31.47169 | -81.31672 | 33104 ft | 439 kts | 14° |
| 2026-05-06 02:57 | 31.52716 | -81.28648 | 33119 ft | 439 kts | 14° |
| 2026-05-06 02:57 | 31.58258 | -81.25634 | 33108 ft | 439 kts | 15° |
| 2026-05-06 02:58 | 31.63785 | -81.22619 | 33107 ft | 438 kts | 15° |
| 2026-05-06 02:58 | 31.69304 | -81.19611 | 33094 ft | 437 kts | 15° |
| 2026-05-06 02:59 | 31.73885 | -81.17112 | 33082 ft | 437 kts | 15° |
| 2026-05-06 02:59 | 31.79391 | -81.14097 | 33094 ft | 436 kts | 15° |
| 2026-05-06 03:00 | 31.84893 | -81.11070 | 33078 ft | 436 kts | 15° |
| 2026-05-06 03:00 | 31.90392 | -81.08050 | 33069 ft | 436 kts | 15° |
| 2026-05-06 03:01 | 31.95896 | -81.05038 | 33067 ft | 436 kts | 15° |
| 2026-05-06 03:01 | 32.01395 | -81.02011 | 33064 ft | 436 kts | 15° |
| 2026-05-06 03:02 | 32.06893 | -80.98945 | 33087 ft | 437 kts | 15° |
| 2026-05-06 03:02 | 32.12388 | -80.95858 | 33082 ft | 438 kts | 15° |
| 2026-05-06 03:03 | 32.17888 | -80.92764 | 33107 ft | 438 kts | 15° |
| 2026-05-06 03:03 | 32.23394 | -80.89677 | 33127 ft | 438 kts | 16° |
| 2026-05-06 03:04 | 32.28893 | -80.86587 | 33155 ft | 437 kts | 16° |
| 2026-05-06 03:04 | 32.34347 | -80.83521 | 33142 ft | 437 kts | 16° |
| 2026-05-06 03:05 | 32.39831 | -80.80436 | 33125 ft | 436 kts | 16° |
| 2026-05-06 03:05 | 32.45306 | -80.77350 | 33122 ft | 436 kts | 16° |
| 2026-05-06 03:06 | 32.50784 | -80.74255 | 33121 ft | 436 kts | 16° |
| 2026-05-06 03:06 | 32.56258 | -80.71157 | 33145 ft | 436 kts | 16° |
| 2026-05-06 03:07 | 32.61729 | -80.68057 | 33126 ft | 436 kts | 16° |
| 2026-05-06 03:07 | 32.67201 | -80.64947 | 33118 ft | 436 kts | 16° |
| 2026-05-06 03:08 | 32.72674 | -80.61829 | 33108 ft | 436 kts | 17° |
| 2026-05-06 03:08 | 32.78125 | -80.58626 | 33106 ft | 437 kts | 17° |
| 2026-05-06 03:09 | 32.83559 | -80.55359 | 33128 ft | 438 kts | 17° |
| 2026-05-06 03:09 | 32.88964 | -80.52122 | 33128 ft | 438 kts | 17° |
| 2026-05-06 03:10 | 32.94416 | -80.48879 | 33117 ft | 437 kts | 17° |
| 2026-05-06 03:10 | 32.99858 | -80.45633 | 33117 ft | 438 kts | 17° |
| 2026-05-06 03:11 | 33.05300 | -80.42379 | 33115 ft | 438 kts | 17° |
| 2026-05-06 03:11 | 33.10747 | -80.39118 | 33112 ft | 438 kts | 17° |
| 2026-05-06 03:12 | 33.16198 | -80.35857 | 33108 ft | 438 kts | 17° |
| 2026-05-06 03:12 | 33.21648 | -80.32599 | 33108 ft | 438 kts | 17° |
| 2026-05-06 03:13 | 33.27097 | -80.29330 | 33107 ft | 438 kts | 17° |
| 2026-05-06 03:13 | 33.32535 | -80.26051 | 33125 ft | 438 kts | 17° |
| 2026-05-06 03:14 | 33.37979 | -80.22765 | 33119 ft | 438 kts | 17° |
| 2026-05-06 03:14 | 33.43423 | -80.19482 | 33119 ft | 438 kts | 17° |
| 2026-05-06 03:15 | 33.48868 | -80.16193 | 33142 ft | 438 kts | 18° |
| 2026-05-06 03:15 | 33.54317 | -80.12899 | 33135 ft | 438 kts | 17° |
| 2026-05-06 03:16 | 33.59769 | -80.09605 | 33140 ft | 439 kts | 17° |
| 2026-05-06 03:16 | 33.65097 | -80.06047 | 33121 ft | 451 kts | 27° |
| 2026-05-06 03:17 | 33.69914 | -80.01080 | 33117 ft | 457 kts | 32° |
| 2026-05-06 03:17 | 33.74711 | -79.96052 | 33121 ft | 458 kts | 31° |
| 2026-05-06 03:18 | 33.79514 | -79.91020 | 33090 ft | 458 kts | 32° |
| 2026-05-06 03:18 | 33.84310 | -79.85976 | 33094 ft | 459 kts | 32° |
| 2026-05-06 03:19 | 33.89116 | -79.80912 | 33093 ft | 459 kts | 32° |
| 2026-05-06 03:19 | 33.93928 | -79.75846 | 33104 ft | 460 kts | 32° |
| 2026-05-06 03:20 | 34.01147 | -79.68214 | 33091 ft | 460 kts | 32° |
| 2026-05-06 03:20 | 34.05961 | -79.63116 | 33111 ft | 461 kts | 32° |
| 2026-05-06 03:21 | 34.10782 | -79.58008 | 33104 ft | 461 kts | 32° |
| 2026-05-06 03:21 | 34.15607 | -79.52893 | 33106 ft | 462 kts | 32° |
| 2026-05-06 03:22 | 34.20428 | -79.47762 | 33110 ft | 462 kts | 32° |
| 2026-05-06 03:22 | 34.25249 | -79.42621 | 33125 ft | 462 kts | 32° |
| 2026-05-06 03:23 | 34.30073 | -79.37468 | 33147 ft | 463 kts | 32° |
| 2026-05-06 03:23 | 34.34895 | -79.32311 | 33130 ft | 463 kts | 32° |
| 2026-05-06 03:24 | 34.39688 | -79.27182 | 33116 ft | 463 kts | 32° |
| 2026-05-06 03:24 | 34.44778 | -79.22632 | 33102 ft | 445 kts | 18° |
| 2026-05-06 03:25 | 34.50295 | -79.19269 | 33105 ft | 444 kts | 18° |
| 2026-05-06 03:25 | 34.55814 | -79.15895 | 33122 ft | 445 kts | 18° |
| 2026-05-06 03:26 | 34.61341 | -79.12512 | 33119 ft | 445 kts | 18° |
| 2026-05-06 03:26 | 34.66877 | -79.09122 | 33117 ft | 445 kts | 18° |
| 2026-05-06 03:27 | 34.72401 | -79.05729 | 33126 ft | 445 kts | 18° |
| 2026-05-06 03:27 | 34.77928 | -79.02325 | 33138 ft | 445 kts | 18° |
| 2026-05-06 03:28 | 34.83453 | -78.98927 | 33120 ft | 445 kts | 18° |
| 2026-05-06 03:28 | 34.88980 | -78.95525 | 33115 ft | 445 kts | 18° |
| 2026-05-06 03:29 | 34.94503 | -78.92116 | 33122 ft | 445 kts | 18° |
| 2026-05-06 03:29 | 35.00030 | -78.88700 | 33127 ft | 445 kts | 18° |
| 2026-05-06 03:30 | 35.05552 | -78.85272 | 33116 ft | 446 kts | 18° |
| 2026-05-06 03:30 | 35.11087 | -78.81842 | 33092 ft | 446 kts | 18° |
| 2026-05-06 03:31 | 35.16614 | -78.78413 | 33090 ft | 446 kts | 18° |
| 2026-05-06 03:31 | 35.22150 | -78.74969 | 33087 ft | 446 kts | 18° |
| 2026-05-06 03:32 | 35.27650 | -78.71543 | 33136 ft | 447 kts | 18° |
| 2026-05-06 03:32 | 35.33185 | -78.68091 | 33134 ft | 447 kts | 18° |
| 2026-05-06 03:33 | 35.38722 | -78.64632 | 33130 ft | 446 kts | 18° |
| 2026-05-06 03:33 | 35.44247 | -78.61173 | 33125 ft | 446 kts | 18° |
| 2026-05-06 03:34 | 35.49770 | -78.57706 | 33104 ft | 446 kts | 18° |
| 2026-05-06 03:34 | 35.55292 | -78.54241 | 33105 ft | 446 kts | 18° |
| 2026-05-06 03:35 | 35.60821 | -78.50768 | 33107 ft | 446 kts | 18° |
| 2026-05-06 03:35 | 35.66345 | -78.47292 | 33104 ft | 446 kts | 18° |
| 2026-05-06 03:36 | 35.71864 | -78.43809 | 33120 ft | 446 kts | 18° |
| 2026-05-06 03:36 | 35.77392 | -78.40328 | 33102 ft | 446 kts | 18° |
| 2026-05-06 03:37 | 35.82922 | -78.36827 | 33088 ft | 447 kts | 18° |
| 2026-05-06 03:37 | 35.88453 | -78.33313 | 33102 ft | 447 kts | 18° |
| 2026-05-06 03:38 | 35.93984 | -78.29801 | 33124 ft | 447 kts | 18° |
| 2026-05-06 03:38 | 35.99525 | -78.26280 | 33114 ft | 448 kts | 18° |
| 2026-05-06 03:39 | 36.05066 | -78.22765 | 33107 ft | 448 kts | 18° |
| 2026-05-06 03:39 | 36.10604 | -78.19239 | 33097 ft | 448 kts | 18° |
| 2026-05-06 03:40 | 36.16110 | -78.15725 | 33117 ft | 448 kts | 18° |
| 2026-05-06 03:40 | 36.21687 | -78.12160 | 33091 ft | 448 kts | 18° |
| 2026-05-06 03:41 | 36.27236 | -78.08609 | 33068 ft | 449 kts | 18° |
| 2026-05-06 03:41 | 36.32752 | -78.05077 | 33062 ft | 449 kts | 18° |
| 2026-05-06 03:42 | 36.38324 | -78.01589 | 33054 ft | 444 kts | 13° |
| 2026-05-06 03:42 | 36.44074 | -77.98907 | 33054 ft | 441 kts | 12° |
| 2026-05-06 03:43 | 36.49834 | -77.96229 | 33045 ft | 442 kts | 12° |
| 2026-05-06 03:43 | 36.55594 | -77.93539 | 33060 ft | 442 kts | 12° |
| 2026-05-06 03:44 | 36.61344 | -77.90858 | 33114 ft | 441 kts | 12° |
| 2026-05-06 03:44 | 36.66121 | -77.88626 | 33126 ft | 441 kts | 11° |
| 2026-05-06 03:45 | 36.72806 | -77.85515 | 33104 ft | 441 kts | 11° |
| 2026-05-06 03:45 | 36.78552 | -77.82823 | 33087 ft | 441 kts | 12° |
| 2026-05-06 03:46 | 36.83370 | -77.80554 | 33066 ft | 442 kts | 12° |
| 2026-05-06 03:46 | 36.89081 | -77.77857 | 33079 ft | 442 kts | 12° |
| 2026-05-06 03:47 | 36.94833 | -77.75152 | 33062 ft | 442 kts | 12° |
| 2026-05-06 03:47 | 37.00591 | -77.72434 | 33049 ft | 442 kts | 12° |
| 2026-05-06 03:48 | 37.06357 | -77.69703 | 32765 ft | 443 kts | 12° |
| 2026-05-06 03:48 | 37.09246 | -77.68339 | 32543 ft | 444 kts | 12° |
| 2026-05-06 03:48 | 37.12144 | -77.66974 | 32292 ft | 446 kts | 12° |
| 2026-05-06 03:49 | 37.15058 | -77.65601 | 32043 ft | 448 kts | 12° |
| 2026-05-06 03:49 | 37.17983 | -77.64221 | 31286 ft | 453 kts | 13° |
| 2026-05-06 03:49 | 37.20952 | -77.62819 | 30403 ft | 459 kts | 14° |
| 2026-05-06 03:49 | 37.23968 | -77.61392 | 29375 ft | 466 kts | 14° |
| 2026-05-06 03:50 | 37.27010 | -77.59942 | 28389 ft | 470 kts | 15° |
| 2026-05-06 03:50 | 37.30089 | -77.58473 | 27320 ft | 476 kts | 15° |
| 2026-05-06 03:50 | 37.33198 | -77.56992 | 26262 ft | 481 kts | 15° |
| 2026-05-06 03:50 | 37.36344 | -77.55493 | 25253 ft | 485 kts | 15° |
| 2026-05-06 03:51 | 37.39481 | -77.53988 | 24673 ft | 479 kts | 15° |
| 2026-05-06 03:51 | 37.42579 | -77.52498 | 24191 ft | 472 kts | 15° |
| 2026-05-06 03:51 | 37.45623 | -77.51034 | 23997 ft | 467 kts | 15° |
| 2026-05-06 03:51 | 37.48650 | -77.49587 | 24014 ft | 464 kts | 15° |
| 2026-05-06 03:52 | 37.51607 | -77.48172 | 24009 ft | 445 kts | 15° |
| 2026-05-06 03:52 | 37.54445 | -77.46806 | 24003 ft | 428 kts | 15° |
| 2026-05-06 03:52 | 37.57171 | -77.45491 | 23964 ft | 414 kts | 14° |
| 2026-05-06 03:52 | 37.59889 | -77.44387 | 23490 ft | 407 kts | 7° |
| 2026-05-06 03:53 | 37.62635 | -77.43559 | 22949 ft | 405 kts | 7° |
| 2026-05-06 03:53 | 37.65374 | -77.42732 | 22444 ft | 404 kts | 7° |
| 2026-05-06 03:53 | 37.68097 | -77.41901 | 21950 ft | 402 kts | 7° |
| 2026-05-06 03:53 | 37.70809 | -77.41065 | 21470 ft | 400 kts | 8° |
| 2026-05-06 03:54 | 37.73507 | -77.40228 | 20981 ft | 399 kts | 8° |
| 2026-05-06 03:54 | 37.76196 | -77.39392 | 20500 ft | 397 kts | 8° |
| 2026-05-06 03:54 | 37.78875 | -77.38559 | 20016 ft | 395 kts | 8° |
| 2026-05-06 03:54 | 37.81538 | -77.37734 | 19524 ft | 394 kts | 8° |
| 2026-05-06 03:55 | 37.84157 | -77.36923 | 19060 ft | 392 kts | 8° |
| 2026-05-06 03:55 | 37.86803 | -77.36101 | 18580 ft | 391 kts | 8° |
| 2026-05-06 03:55 | 37.89437 | -77.35285 | 18070 ft | 389 kts | 9° |
| 2026-05-06 03:55 | 37.92063 | -77.34474 | 17541 ft | 387 kts | 9° |
| 2026-05-06 03:56 | 37.94672 | -77.33672 | 17024 ft | 385 kts | 9° |
| 2026-05-06 03:56 | 37.97269 | -77.32877 | 16521 ft | 383 kts | 9° |
| 2026-05-06 03:56 | 37.99857 | -77.32083 | 16003 ft | 381 kts | 10° |
| 2026-05-06 03:56 | 38.02421 | -77.31295 | 15633 ft | 377 kts | 10° |
| 2026-05-06 03:57 | 38.04962 | -77.30514 | 15266 ft | 375 kts | 10° |
| 2026-05-06 03:57 | 38.07490 | -77.29735 | 14888 ft | 373 kts | 11° |
| 2026-05-06 03:57 | 38.10006 | -77.28952 | 14520 ft | 372 kts | 11° |
| 2026-05-06 03:57 | 38.12511 | -77.28166 | 14154 ft | 370 kts | 11° |
| 2026-05-06 03:58 | 38.15008 | -77.27377 | 13790 ft | 369 kts | 12° |
| 2026-05-06 03:58 | 38.17488 | -77.26589 | 13397 ft | 367 kts | 12° |
| 2026-05-06 03:58 | 38.19960 | -77.25807 | 13054 ft | 364 kts | 11° |
| 2026-05-06 03:58 | 38.22405 | -77.24979 | 12747 ft | 363 kts | 13° |
| 2026-05-06 03:59 | 38.24824 | -77.24082 | 12463 ft | 362 kts | 14° |
| 2026-05-06 03:59 | 38.27229 | -77.23150 | 12179 ft | 360 kts | 14° |
| 2026-05-06 03:59 | 38.29617 | -77.22216 | 11887 ft | 359 kts | 15° |
| 2026-05-06 03:59 | 38.32009 | -77.21286 | 11614 ft | 359 kts | 15° |
| 2026-05-06 04:00 | 38.34393 | -77.20365 | 11319 ft | 358 kts | 14° |
| 2026-05-06 04:00 | 38.36775 | -77.19452 | 11063 ft | 357 kts | 14° |
| 2026-05-06 04:00 | 38.39149 | -77.18545 | 10916 ft | 356 kts | 14° |
| 2026-05-06 04:00 | 38.41524 | -77.17633 | 10818 ft | 356 kts | 14° |
| 2026-05-06 04:01 | 38.43889 | -77.16717 | 10701 ft | 354 kts | 14° |
| 2026-05-06 04:01 | 38.46240 | -77.15801 | 10587 ft | 353 kts | 14° |
| 2026-05-06 04:01 | 38.48589 | -77.14892 | 10473 ft | 352 kts | 14° |
| 2026-05-06 04:01 | 38.50934 | -77.13990 | 10359 ft | 351 kts | 14° |
| 2026-05-06 04:02 | 38.53233 | -77.13101 | 10231 ft | 339 kts | 14° |
| 2026-05-06 04:02 | 38.55455 | -77.12238 | 10112 ft | 327 kts | 14° |
| 2026-05-06 04:02 | 38.57601 | -77.11404 | 9919 ft | 319 kts | 13° |
| 2026-05-06 04:02 | 38.59707 | -77.10588 | 9677 ft | 314 kts | 13° |
| 2026-05-06 04:03 | 38.61789 | -77.09785 | 9373 ft | 312 kts | 13° |
| 2026-05-06 04:03 | 38.63867 | -77.08989 | 9074 ft | 311 kts | 13° |
| 2026-05-06 04:03 | 38.65930 | -77.08199 | 8746 ft | 308 kts | 13° |
| 2026-05-06 04:03 | 38.67981 | -77.07417 | 8388 ft | 307 kts | 11° |
| 2026-05-06 04:04 | 38.70069 | -77.06971 | 8083 ft | 302 kts | 359° |
| 2026-05-06 04:04 | 38.72165 | -77.06765 | 7775 ft | 302 kts | 359° |
| 2026-05-06 04:04 | 38.74259 | -77.06568 | 7466 ft | 300 kts | 355° |
| 2026-05-06 04:04 | 38.76298 | -77.06813 | 7190 ft | 290 kts | 340° |
| 2026-05-06 04:05 | 38.78165 | -77.07676 | 6899 ft | 281 kts | 324° |
| 2026-05-06 04:05 | 38.79791 | -77.08961 | 6595 ft | 276 kts | 319° |
| 2026-05-06 04:05 | 38.81403 | -77.10293 | 6258 ft | 276 kts | 319° |
| 2026-05-06 04:05 | 38.83001 | -77.11632 | 5920 ft | 272 kts | 315° |
| 2026-05-06 04:06 | 38.84384 | -77.13221 | 5577 ft | 266 kts | 308° |
| 2026-05-06 04:06 | 38.85712 | -77.14870 | 5221 ft | 266 kts | 308° |
| 2026-05-06 04:06 | 38.87036 | -77.16517 | 4895 ft | 265 kts | 307° |
| 2026-05-06 04:06 | 38.88347 | -77.18150 | 4552 ft | 264 kts | 307° |
| 2026-05-06 04:07 | 38.89665 | -77.19794 | 4196 ft | 264 kts | 307° |
| 2026-05-06 04:07 | 38.90980 | -77.21432 | 3823 ft | 263 kts | 307° |
| 2026-05-06 04:07 | 38.92276 | -77.23043 | 3619 ft | 255 kts | 307° |
| 2026-05-06 04:07 | 38.93548 | -77.24621 | 3310 ft | 253 kts | 307° |
| 2026-05-06 04:08 | 38.94815 | -77.26177 | 3023 ft | 249 kts | 308° |
| 2026-05-06 04:08 | 38.96085 | -77.27623 | 2995 ft | 245 kts | 319° |
| 2026-05-06 04:08 | 38.97743 | -77.28345 | 3004 ft | 262 kts | 351° |
| 2026-05-06 04:08 | 38.99542 | -77.27934 | 3020 ft | 262 kts | 22° |
| 2026-05-06 04:09 | 39.00907 | -77.26521 | 2991 ft | 246 kts | 59° |
| 2026-05-06 04:09 | 39.01544 | -77.24564 | 3002 ft | 232 kts | 88° |
| 2026-05-06 04:09 | 39.01497 | -77.22585 | 2788 ft | 212 kts | 118° |
| 2026-05-06 04:09 | 39.00895 | -77.20950 | 2717 ft | 194 kts | 141° |
| 2026-05-06 04:10 | 38.99990 | -77.19730 | 2730 ft | 188 kts | 149° |
| 2026-05-06 04:10 | 38.99054 | -77.18556 | 2746 ft | 188 kts | 148° |
| 2026-05-06 04:10 | 38.98134 | -77.17389 | 2724 ft | 183 kts | 148° |
| 2026-05-06 04:10 | 38.97250 | -77.16268 | 2716 ft | 181 kts | 148° |
| 2026-05-06 04:11 | 38.96351 | -77.15138 | 2709 ft | 180 kts | 150° |
| 2026-05-06 04:11 | 38.95423 | -77.14071 | 2524 ft | 177 kts | 152° |
| 2026-05-06 04:11 | 38.94497 | -77.13044 | 2288 ft | 175 kts | 152° |
| 2026-05-06 04:11 | 38.93588 | -77.12048 | 2084 ft | 167 kts | 154° |
| 2026-05-06 04:12 | 38.92654 | -77.11351 | 1855 ft | 148 kts | 165° |
| 2026-05-06 04:12 | 38.91766 | -77.10773 | 1672 ft | 140 kts | 164° |
| 2026-05-06 04:12 | 38.90981 | -77.09947 | 1467 ft | 155 kts | 140° |
| 2026-05-06 04:12 | 38.90505 | -77.08688 | 1273 ft | 160 kts | 117° |
| 2026-05-06 04:13 | 38.90125 | -77.07391 | 973 ft | 151 kts | 131° |
| 2026-05-06 04:13 | 38.89505 | -77.06343 | 825 ft | 146 kts | 135° |
| 2026-05-06 04:13 | 38.88835 | -77.05377 | 633 ft | 143 kts | 141° |
| 2026-05-06 04:13 | 38.88114 | -77.04467 | 433 ft | 144 kts | 144° |
| 2026-05-06 04:14 | 38.87227 | -77.03997 | 304 ft | 140 kts | 172° |
| 2026-05-06 04:14 | 38.86284 | -77.03889 | 93 ft | 134 kts | 177° |
| 2026-05-06 04:14 | 38.85417 | -77.03803 | 24 ft | 97 kts | 175° |
| 2026-05-06 04:14 | 38.85024 | -77.03767 | 24 ft | 23 kts | 177° |
| 2026-05-06 04:15 | 38.84893 | -77.03799 | 23 ft | 18 kts | 236° |
| 2026-05-06 04:15 | 38.84882 | -77.03859 | 23 ft | 0 kts | 264° |
| 2026-05-06 04:16 | 38.84881 | -77.03861 | 23 ft | 0 kts | 265° |
| 2026-05-06 04:16 | 38.84881 | -77.03870 | 24 ft | 2 kts | 266° |
| 2026-05-06 04:16 | 38.84881 | -77.03896 | 24 ft | 4 kts | 270° |
| 2026-05-06 04:16 | 38.84887 | -77.03934 | 24 ft | 5 kts | 300° |
| 2026-05-06 04:17 | 38.84950 | -77.03956 | 24 ft | 13 kts | 356° |
| 2026-05-06 04:17 | 38.85057 | -77.03967 | 24 ft | 18 kts | 355° |
| 2026-05-06 04:17 | 38.85182 | -77.03979 | 24 ft | 18 kts | 356° |
| 2026-05-06 04:17 | 38.85311 | -77.03994 | 24 ft | 19 kts | 355° |
| 2026-05-06 04:18 | 38.85444 | -77.04008 | 26 ft | 19 kts | 354° |
| 2026-05-06 04:18 | 38.85536 | -77.04069 | 24 ft | 15 kts | 288° |
| 2026-05-06 04:18 | 38.85519 | -77.04184 | 24 ft | 11 kts | 283° |
| 2026-05-06 04:18 | 38.85557 | -77.04219 | 27 ft | 0 kts | 336° |